createdAt,value
2017-11-16T00:01:40.381Z,11.11
2017-11-16T00:04:08.027Z,11.11
2017-11-16T00:06:35.705Z,11.12
2017-11-16T00:09:03.456Z,11.16
2017-11-16T00:11:31.085Z,11.15
2017-11-16T00:13:58.820Z,11.13
2017-11-16T00:16:26.441Z,11.13
2017-11-16T00:18:54.077Z,11.15
2017-11-16T00:21:21.752Z,11.11
2017-11-16T00:23:49.439Z,11.08
2017-11-16T00:26:17.068Z,11.04
2017-11-16T00:28:44.808Z,11.04
2017-11-16T00:31:12.428Z,11.06
2017-11-16T00:33:40.048Z,11.06
2017-11-16T00:36:07.728Z,11.09
2017-11-16T00:38:35.488Z,11.11
2017-11-16T00:41:03.173Z,11.09
2017-11-16T00:43:30.905Z,11.08
2017-11-16T00:45:58.524Z,11.10
2017-11-16T00:48:26.204Z,11.14
2017-11-16T00:50:53.867Z,11.14
2017-11-16T00:53:21.555Z,11.14
2017-11-16T00:55:49.184Z,11.14
2017-11-16T00:58:16.920Z,11.12
2017-11-16T01:00:44.550Z,11.13
2017-11-16T01:03:12.179Z,11.12
2017-11-16T01:05:39.919Z,11.14
2017-11-16T01:08:07.536Z,11.13
2017-11-16T01:10:35.172Z,11.12
2017-11-16T01:13:02.881Z,11.11
2017-11-16T01:15:30.501Z,11.12
2017-11-16T01:17:58.184Z,11.14
2017-11-16T01:20:25.913Z,11.15
2017-11-16T01:22:53.543Z,11.17
2017-11-16T01:25:21.208Z,11.15
2017-11-16T01:27:48.882Z,11.13
2017-11-16T01:30:16.562Z,11.11
2017-11-16T01:32:44.195Z,11.12
2017-11-16T01:35:11.883Z,11.13
2017-11-16T01:37:39.510Z,11.11
2017-11-16T01:40:07.160Z,11.10
2017-11-16T01:42:34.840Z,11.08
2017-11-16T01:45:02.542Z,11.09
2017-11-16T01:47:30.176Z,11.14
2017-11-16T01:49:57.906Z,11.13
2017-11-16T01:52:25.524Z,11.14
2017-11-16T01:54:53.158Z,11.15
2017-11-16T01:57:20.888Z,11.18
2017-11-16T01:59:48.579Z,11.11
2017-11-16T02:02:27.970Z,11.12
2017-11-16T02:04:55.652Z,11.16
2017-11-16T02:07:23.268Z,11.18
2017-11-16T02:09:51.000Z,11.20
2017-11-16T02:12:18.636Z,11.15
2017-11-16T02:14:46.273Z,11.17
2017-11-16T02:17:14.006Z,11.15
2017-11-16T02:19:41.648Z,11.16
2017-11-16T02:22:09.339Z,11.18
2017-11-16T02:24:37.076Z,11.21
2017-11-16T02:27:04.711Z,11.21
2017-11-16T02:29:32.347Z,11.21
2017-11-16T02:32:00.101Z,11.24
2017-11-16T02:34:27.733Z,11.22
2017-11-16T02:36:55.474Z,11.19
2017-11-16T02:39:23.203Z,11.17
2017-11-16T02:41:50.862Z,11.16
2017-11-16T02:44:18.488Z,11.16
2017-11-16T02:46:46.185Z,11.15
2017-11-16T02:49:13.851Z,11.09
2017-11-16T02:51:41.488Z,11.10
2017-11-16T02:54:09.200Z,11.09
2017-11-16T02:56:36.833Z,11.09
2017-11-16T02:59:04.498Z,11.08
2017-11-16T03:01:32.202Z,11.08
2017-11-16T03:03:59.831Z,11.07
2017-11-16T03:06:27.617Z,11.07
2017-11-16T03:08:55.362Z,11.07
2017-11-16T03:11:23.036Z,11.07
2017-11-16T03:13:50.667Z,11.04
2017-11-16T03:16:18.346Z,11.02
2017-11-16T03:18:45.973Z,11.01
2017-11-16T03:21:13.664Z,11.01
2017-11-16T03:23:41.395Z,11.01
2017-11-16T03:26:09.030Z,11.02
2017-11-16T03:28:36.823Z,10.98
2017-11-16T03:31:04.571Z,10.99
2017-11-16T03:33:32.202Z,11.02
2017-11-16T03:35:59.870Z,11.02
2017-11-16T03:38:27.552Z,11.02
2017-11-16T03:40:55.180Z,10.99
2017-11-16T03:43:22.865Z,11.00
2017-11-16T03:45:50.586Z,11.04
2017-11-16T03:48:18.276Z,11.07
2017-11-16T03:50:45.909Z,11.10
2017-11-16T03:53:13.611Z,11.11
2017-11-16T03:55:41.301Z,11.13
2017-11-16T03:58:08.980Z,11.12
2017-11-16T04:00:36.733Z,11.17
2017-11-16T04:03:04.343Z,11.19
2017-11-16T04:05:31.965Z,11.18
2017-11-16T04:07:59.676Z,11.20
2017-11-16T04:10:27.315Z,11.19
2017-11-16T04:12:54.932Z,11.17
2017-11-16T04:15:22.600Z,11.18
2017-11-16T04:17:50.227Z,11.18
2017-11-16T04:20:17.872Z,11.15
2017-11-16T04:22:45.548Z,11.17
2017-11-16T04:25:13.179Z,11.14
2017-11-16T04:27:40.812Z,11.13
2017-11-16T04:30:08.540Z,11.10
2017-11-16T04:32:36.163Z,11.08
2017-11-16T04:35:03.776Z,11.03
2017-11-16T04:37:31.504Z,11.03
2017-11-16T04:39:59.177Z,11.00
2017-11-16T04:42:26.796Z,10.98
2017-11-16T04:44:54.463Z,11.04
2017-11-16T04:47:22.084Z,11.08
2017-11-16T04:49:49.717Z,11.07
2017-11-16T04:52:17.403Z,11.05
2017-11-16T04:54:45.024Z,11.03
2017-11-16T04:57:12.656Z,11.02
2017-11-16T04:59:40.376Z,10.99
2017-11-16T05:02:08.066Z,10.96
2017-11-16T05:04:35.690Z,10.97
2017-11-16T05:07:03.364Z,10.99
2017-11-16T05:09:30.974Z,11.00
2017-11-16T05:11:58.648Z,11.01
2017-11-16T05:14:26.309Z,11.00
2017-11-16T05:16:53.985Z,11.03
2017-11-16T05:19:21.600Z,10.99
2017-11-16T05:21:49.277Z,11.04
2017-11-16T05:24:16.952Z,11.02
2017-11-16T05:26:44.632Z,11.09
2017-11-16T05:29:12.304Z,11.10
2017-11-16T05:31:40.012Z,11.14
2017-11-16T05:34:07.633Z,11.19
2017-11-16T05:36:35.344Z,11.21
2017-11-16T05:39:03.069Z,11.19
2017-11-16T05:41:30.704Z,11.23
2017-11-16T05:43:58.405Z,11.25
2017-11-16T05:46:26.024Z,11.28
2017-11-16T05:48:53.708Z,11.30
2017-11-16T05:51:21.379Z,11.35
2017-11-16T05:53:48.992Z,11.35
2017-11-16T05:56:16.664Z,11.39
2017-11-16T05:58:44.332Z,11.41
2017-11-16T06:01:11.960Z,11.49
2017-11-16T06:03:39.587Z,11.53
2017-11-16T06:06:07.296Z,11.51
2017-11-16T06:08:34.971Z,11.45
2017-11-16T06:11:02.598Z,11.49
2017-11-16T06:13:30.286Z,11.52
2017-11-16T06:15:57.911Z,11.53
2017-11-16T06:18:25.610Z,11.64
2017-11-16T06:20:53.292Z,11.67
2017-11-16T06:23:20.900Z,11.78
2017-11-16T06:25:48.585Z,11.86
2017-11-16T06:28:16.278Z,11.95
2017-11-16T06:30:43.965Z,12.05
2017-11-16T06:33:11.584Z,12.12
2017-11-16T06:35:39.340Z,12.19
2017-11-16T06:38:06.960Z,12.30
2017-11-16T06:40:34.597Z,12.45
2017-11-16T06:43:02.275Z,12.49
2017-11-16T06:45:29.953Z,12.57
2017-11-16T06:47:57.578Z,12.65
2017-11-16T06:50:25.252Z,12.75
2017-11-16T06:52:52.875Z,12.84
2017-11-16T06:55:20.488Z,12.78
2017-11-16T06:57:48.100Z,12.88
2017-11-16T07:00:15.711Z,13.00
2017-11-16T07:02:43.271Z,12.95
2017-11-16T07:05:10.859Z,12.90
2017-11-16T07:07:38.478Z,12.93
2017-11-16T07:10:06.033Z,12.93
2017-11-16T07:12:33.626Z,13.03
2017-11-16T07:15:01.199Z,13.02
2017-11-16T07:17:28.755Z,12.87
2017-11-16T07:19:58.993Z,13.03
2017-11-16T07:22:26.739Z,13.12
2017-11-16T07:24:54.325Z,13.34
2017-11-16T07:27:21.925Z,13.47
2017-11-16T07:29:49.488Z,13.69
2017-11-16T07:32:17.051Z,13.71
2017-11-16T07:34:44.667Z,13.64
2017-11-16T07:37:12.252Z,13.80
2017-11-16T07:39:39.807Z,13.85
2017-11-16T07:42:07.414Z,13.89
2017-11-16T07:44:34.963Z,14.11
2017-11-16T07:47:02.586Z,14.17
2017-11-16T07:49:30.249Z,14.01
2017-11-16T07:51:57.859Z,14.03
2017-11-16T07:54:25.479Z,14.08
2017-11-16T07:56:53.127Z,13.98
2017-11-16T07:59:20.696Z,14.03
2017-11-16T08:01:48.255Z,14.20
2017-11-16T08:04:15.872Z,14.28
2017-11-16T08:06:43.423Z,14.14
2017-11-16T08:09:10.987Z,14.06
2017-11-16T08:11:38.591Z,14.19
2017-11-16T08:14:06.154Z,14.18
2017-11-16T08:16:33.726Z,14.08
2017-11-16T08:19:01.349Z,14.11
2017-11-16T08:21:28.907Z,14.33
2017-11-16T08:23:56.467Z,14.50
2017-11-16T08:26:24.048Z,14.67
2017-11-16T08:28:51.618Z,14.65
2017-11-16T08:31:19.188Z,14.67
2017-11-16T08:33:46.783Z,14.80
2017-11-16T08:36:14.339Z,14.68
2017-11-16T08:38:41.907Z,14.71
2017-11-16T08:41:09.508Z,14.55
2017-11-16T08:43:37.073Z,14.58
2017-11-16T08:46:04.635Z,14.44
2017-11-16T08:48:32.240Z,14.47
2017-11-16T08:50:59.812Z,14.48
2017-11-16T08:53:27.384Z,14.78
2017-11-16T08:55:54.998Z,14.85
2017-11-16T08:58:22.564Z,14.89
2017-11-16T09:00:50.203Z,14.96
2017-11-16T09:03:17.808Z,15.03
2017-11-16T09:05:45.384Z,15.21
2017-11-16T09:08:12.963Z,15.17
2017-11-16T09:10:40.559Z,15.46
2017-11-16T09:13:08.118Z,15.60
2017-11-16T09:15:35.691Z,15.50
2017-11-16T09:18:03.304Z,15.64
2017-11-16T09:20:30.865Z,16.01
2017-11-16T09:22:58.422Z,16.24
2017-11-16T09:25:26.041Z,16.28
2017-11-16T09:27:53.613Z,16.62
2017-11-16T09:30:21.193Z,16.66
2017-11-16T09:32:48.788Z,16.33
2017-11-16T09:35:16.345Z,16.43
2017-11-16T09:37:43.944Z,16.60
2017-11-16T09:40:11.600Z,16.42
2017-11-16T09:42:39.228Z,16.40
2017-11-16T09:45:06.861Z,16.31
2017-11-16T09:47:41.485Z,16.38
2017-11-16T09:50:09.128Z,16.52
2017-11-16T09:52:36.750Z,16.47
2017-11-16T09:55:04.448Z,16.50
2017-11-16T09:57:32.077Z,16.43
2017-11-16T09:59:59.700Z,16.60
2017-11-16T10:02:27.453Z,16.70
2017-11-16T10:04:55.117Z,16.90
2017-11-16T10:07:22.736Z,16.72
2017-11-16T10:09:50.417Z,16.61
2017-11-16T10:12:18.041Z,16.59
2017-11-16T10:14:45.665Z,16.36
2017-11-16T10:17:13.365Z,16.43
2017-11-16T10:19:41.040Z,16.06
2017-11-16T10:22:08.648Z,15.90
2017-11-16T10:24:36.317Z,15.95
2017-11-16T10:27:03.928Z,16.06
2017-11-16T10:29:31.555Z,16.40
2017-11-16T10:31:59.280Z,16.54
2017-11-16T10:34:26.896Z,16.76
2017-11-16T10:36:54.567Z,16.73
2017-11-16T10:39:22.328Z,16.36
2017-11-16T10:41:49.944Z,16.30
2017-11-16T10:44:17.576Z,16.45
2017-11-16T10:46:45.276Z,16.61
2017-11-16T10:49:12.916Z,16.79
2017-11-16T10:51:40.553Z,17.11
2017-11-16T10:54:08.233Z,17.26
2017-11-16T10:56:35.850Z,17.58
2017-11-16T10:59:03.464Z,17.85
2017-11-16T11:01:31.189Z,17.80
2017-11-16T11:03:58.856Z,17.68
2017-11-16T11:06:26.459Z,17.30
2017-11-16T11:08:54.140Z,17.44
2017-11-16T11:11:21.751Z,18.04
2017-11-16T11:13:49.362Z,18.34
2017-11-16T11:16:17.081Z,18.43
2017-11-16T11:18:44.753Z,18.12
2017-11-16T11:21:12.372Z,18.18
2017-11-16T11:23:40.097Z,18.19
2017-11-16T11:26:07.708Z,17.66
2017-11-16T11:28:35.334Z,17.78
2017-11-16T11:31:03.001Z,17.81
2017-11-16T11:33:30.616Z,17.49
2017-11-16T11:35:58.237Z,17.46
2017-11-16T11:38:25.967Z,17.60
2017-11-16T11:40:53.707Z,17.61
2017-11-16T11:43:21.388Z,17.42
2017-11-16T11:45:49.112Z,17.24
2017-11-16T11:48:16.728Z,17.13
2017-11-16T11:50:44.407Z,17.44
2017-11-16T11:53:12.073Z,17.44
2017-11-16T11:55:39.692Z,17.24
2017-11-16T11:58:07.362Z,16.82
2017-11-16T12:00:35.028Z,16.69
2017-11-16T12:03:02.648Z,16.53
2017-11-16T12:05:30.335Z,16.46
2017-11-16T12:07:57.997Z,16.34
2017-11-16T12:10:25.616Z,16.24
2017-11-16T12:12:53.232Z,16.06
2017-11-16T12:15:20.982Z,15.86
2017-11-16T12:17:48.664Z,15.79
2017-11-16T12:20:16.286Z,15.64
2017-11-16T12:22:44.022Z,15.52
2017-11-16T12:25:11.637Z,15.29
2017-11-16T12:27:39.269Z,15.12
2017-11-16T12:30:07.036Z,15.08
2017-11-16T12:32:34.717Z,14.89
2017-11-16T12:35:02.405Z,14.82
2017-11-16T12:37:30.152Z,14.70
2017-11-16T12:39:57.772Z,14.64
2017-11-16T12:42:25.408Z,14.43
2017-11-16T12:44:53.006Z,14.41
2017-11-16T12:47:20.580Z,14.33
2017-11-16T12:49:48.156Z,14.29
2017-11-16T12:52:15.744Z,14.36
2017-11-16T12:54:43.295Z,14.38
2017-11-16T12:57:10.863Z,14.37
2017-11-16T12:59:38.451Z,14.42
2017-11-16T13:02:06.017Z,14.50
2017-11-16T13:04:33.568Z,14.37
2017-11-16T13:07:01.175Z,14.39
2017-11-16T13:09:28.727Z,14.38
2017-11-16T13:11:56.274Z,14.38
2017-11-16T13:14:23.877Z,14.35
2017-11-16T13:16:51.426Z,14.27
2017-11-16T13:19:18.967Z,14.20
2017-11-16T13:21:46.565Z,14.05
2017-11-16T13:24:14.131Z,13.92
2017-11-16T13:26:41.687Z,13.91
2017-11-16T13:29:09.285Z,13.84
2017-11-16T13:31:36.847Z,13.78
2017-11-16T13:34:04.399Z,13.60
2017-11-16T13:36:32.031Z,13.59
2017-11-16T13:38:59.600Z,13.47
2017-11-16T13:41:27.159Z,13.42
2017-11-16T13:43:54.754Z,13.43
2017-11-16T13:46:22.303Z,13.35
2017-11-16T13:48:49.851Z,13.10
2017-11-16T13:51:17.458Z,12.99
2017-11-16T13:53:45.012Z,12.87
2017-11-16T13:56:12.677Z,12.82
2017-11-16T13:58:40.262Z,12.80
2017-11-16T14:01:07.883Z,12.70
2017-11-16T14:03:35.431Z,12.63
2017-11-16T14:06:03.024Z,12.70
2017-11-16T14:08:30.574Z,12.74
2017-11-16T14:10:58.128Z,12.81
2017-11-16T14:13:25.739Z,12.78
2017-11-16T14:15:53.297Z,12.76
2017-11-16T14:18:20.859Z,12.66
2017-11-16T14:20:48.446Z,12.62
2017-11-16T14:23:16.035Z,12.47
2017-11-16T14:25:43.585Z,12.36
2017-11-16T14:28:11.164Z,12.31
2017-11-16T14:30:38.724Z,12.37
2017-11-16T14:33:06.278Z,12.36
2017-11-16T14:35:33.879Z,12.32
2017-11-16T14:38:01.445Z,12.29
2017-11-16T14:40:29.003Z,12.27
2017-11-16T14:42:56.597Z,12.19
2017-11-16T14:45:24.163Z,12.16
2017-11-16T14:47:51.729Z,12.00
2017-11-16T14:50:19.312Z,11.91
2017-11-16T14:52:46.871Z,11.86
2017-11-16T14:55:14.428Z,11.84
2017-11-16T14:57:42.023Z,11.82
2017-11-16T15:00:09.579Z,11.70
2017-11-16T15:02:37.144Z,11.65
2017-11-16T15:05:04.787Z,11.59
2017-11-16T15:07:32.410Z,11.53
2017-11-16T15:10:00.020Z,11.44
2017-11-16T15:12:27.622Z,11.39
2017-11-16T15:14:55.183Z,11.33
2017-11-16T15:17:22.739Z,11.25
2017-11-16T15:19:50.325Z,11.19
2017-11-16T15:22:17.891Z,11.13
2017-11-16T15:24:45.452Z,11.04
2017-11-16T15:27:13.085Z,10.97
2017-11-16T15:29:40.636Z,10.92
2017-11-16T15:32:08.263Z,10.89
2017-11-16T15:34:35.853Z,10.81
2017-11-16T15:37:03.415Z,10.73
2017-11-16T15:39:30.967Z,10.66
2017-11-16T15:41:58.560Z,10.53
2017-11-16T15:44:26.117Z,10.51
2017-11-16T15:46:53.667Z,10.52
2017-11-16T15:49:21.264Z,10.45
2017-11-16T15:51:48.827Z,10.39
2017-11-16T15:54:16.404Z,10.38
2017-11-16T15:56:43.996Z,10.35
2017-11-16T15:59:11.564Z,10.32
2017-11-16T16:01:39.184Z,10.31
2017-11-16T16:04:06.848Z,10.30
2017-11-16T16:06:34.462Z,10.30
2017-11-16T16:09:02.027Z,10.28
2017-11-16T16:11:29.695Z,10.33
2017-11-16T16:13:57.251Z,10.29
2017-11-16T16:16:24.811Z,10.24
2017-11-16T16:18:52.411Z,10.24
2017-11-16T16:21:20.020Z,10.30
2017-11-16T16:23:47.583Z,10.33
2017-11-16T16:26:16.039Z,10.34
2017-11-16T16:28:43.595Z,10.36
2017-11-16T16:31:11.153Z,10.38
2017-11-16T16:33:38.827Z,10.44
2017-11-16T16:36:06.373Z,10.50
2017-11-16T16:38:33.927Z,10.52
2017-11-16T16:41:01.539Z,10.53
2017-11-16T16:43:29.100Z,10.53
2017-11-16T16:45:56.652Z,10.55
2017-11-16T16:48:24.240Z,10.55
2017-11-16T16:50:52.579Z,10.54
2017-11-16T16:53:20.184Z,10.57
2017-11-16T16:55:47.771Z,10.56
2017-11-16T16:58:15.329Z,10.57
2017-11-16T17:00:42.880Z,10.61
2017-11-16T17:03:10.463Z,10.65
2017-11-16T17:05:38.038Z,10.64
2017-11-16T17:08:05.594Z,10.70
2017-11-16T17:10:33.195Z,10.76
2017-11-16T17:13:00.747Z,10.75
2017-11-16T17:15:28.331Z,10.67
2017-11-16T17:17:55.916Z,10.66
2017-11-16T17:20:23.467Z,10.65
2017-11-16T17:22:51.040Z,10.66
2017-11-16T17:25:18.627Z,10.66
2017-11-16T17:27:46.176Z,10.63
2017-11-16T17:30:13.731Z,10.68
2017-11-16T17:32:41.311Z,10.68
2017-11-16T17:35:08.859Z,10.70
2017-11-16T17:37:36.427Z,10.72
2017-11-16T17:40:04.071Z,10.66
2017-11-16T17:42:31.635Z,10.67
2017-11-16T17:44:59.235Z,10.68
2017-11-16T17:47:26.820Z,10.70
2017-11-16T17:49:54.371Z,10.74
2017-11-16T17:52:21.934Z,10.68
2017-11-16T17:54:49.522Z,10.73
2017-11-16T17:57:17.095Z,10.78
2017-11-16T17:59:44.655Z,10.79
2017-11-16T18:02:12.252Z,10.74
2017-11-16T18:04:39.795Z,10.70
2017-11-16T18:07:07.343Z,10.74
2017-11-16T18:09:34.930Z,10.78
2017-11-16T18:12:02.587Z,10.76
2017-11-16T18:14:30.136Z,10.70
2017-11-16T18:16:57.733Z,10.74
2017-11-16T18:19:25.286Z,10.70
2017-11-16T18:21:52.849Z,10.74
2017-11-16T18:24:20.433Z,10.76
2017-11-16T18:26:47.998Z,10.77
2017-11-16T18:29:15.552Z,10.78
2017-11-16T18:31:43.127Z,10.76
2017-11-16T18:34:10.723Z,10.83
2017-11-16T18:36:38.278Z,10.83
2017-11-16T18:39:05.871Z,10.88
2017-11-16T18:41:33.426Z,10.90
2017-11-16T18:44:00.975Z,10.81
2017-11-16T18:46:28.556Z,10.73
2017-11-16T18:48:56.108Z,10.72
2017-11-16T18:51:23.675Z,10.74
2017-11-16T18:53:51.279Z,10.70
2017-11-16T18:56:18.826Z,10.65
2017-11-16T18:58:46.376Z,10.60
2017-11-16T19:01:13.970Z,10.59
2017-11-16T19:03:41.520Z,10.59
2017-11-16T19:06:09.063Z,10.57
2017-11-16T19:08:36.682Z,10.60
2017-11-16T19:11:04.247Z,10.61
2017-11-16T19:13:31.806Z,10.57
2017-11-16T19:15:59.395Z,10.54
2017-11-16T19:18:26.956Z,10.51
2017-11-16T19:20:54.506Z,10.51
2017-11-16T19:23:22.124Z,10.51
2017-11-16T19:25:49.671Z,10.55
2017-11-16T19:28:17.259Z,10.55
2017-11-16T19:30:44.854Z,10.55
2017-11-16T19:33:12.416Z,10.56
2017-11-16T19:35:40.022Z,10.60
2017-11-16T19:38:07.619Z,10.58
2017-11-16T19:40:35.177Z,10.51
2017-11-16T19:43:02.731Z,10.50
2017-11-16T19:45:30.316Z,10.49
2017-11-16T19:47:57.872Z,10.48
2017-11-16T19:50:25.411Z,10.49
2017-11-16T19:52:53.015Z,10.51
2017-11-16T19:55:20.599Z,10.45
2017-11-16T19:57:48.148Z,10.46
2017-11-16T20:00:15.741Z,10.49
2017-11-16T20:02:43.410Z,10.44
2017-11-16T20:05:10.955Z,10.48
2017-11-16T20:07:38.531Z,10.45
2017-11-16T20:10:06.074Z,10.47
2017-11-16T20:12:33.622Z,10.47
2017-11-16T20:15:01.225Z,10.50
2017-11-16T20:17:28.773Z,10.52
2017-11-16T20:19:56.314Z,10.53
2017-11-16T20:22:23.886Z,10.47
2017-11-16T20:24:51.456Z,10.51
2017-11-16T20:27:19.001Z,10.48
2017-11-16T20:29:46.640Z,10.47
2017-11-16T20:32:14.198Z,10.42
2017-11-16T20:34:41.743Z,10.41
2017-11-16T20:40:29.999Z,10.44
2017-11-16T20:46:07.907Z,10.35
2017-11-16T20:51:50.011Z,10.30
2017-11-16T20:54:20.494Z,10.30
2017-11-16T20:56:48.096Z,10.31
2017-11-16T20:59:15.709Z,10.29
2017-11-16T21:01:43.290Z,10.31
2017-11-16T21:04:10.840Z,10.27
2017-11-16T21:06:38.396Z,10.23
2017-11-16T21:09:06.037Z,10.23
2017-11-16T21:11:33.594Z,10.25
2017-11-16T21:14:01.144Z,10.25
2017-11-16T21:16:28.734Z,10.17
2017-11-16T21:18:56.282Z,10.19
2017-11-16T21:21:23.831Z,10.20
2017-11-16T21:23:51.407Z,10.18
2017-11-16T21:26:18.957Z,10.11
2017-11-16T21:28:46.505Z,10.16
2017-11-16T21:31:14.096Z,10.20
2017-11-16T21:33:41.673Z,10.24
2017-11-16T21:36:09.228Z,10.27
2017-11-16T21:38:36.816Z,10.19
2017-11-16T21:41:04.383Z,10.18
2017-11-16T21:43:31.995Z,10.15
2017-11-16T21:45:59.599Z,10.15
2017-11-16T21:48:27.200Z,10.06
2017-11-16T21:50:54.819Z,10.07
2017-11-16T21:53:22.484Z,10.08
2017-11-16T21:55:50.104Z,10.12
2017-11-16T21:58:17.772Z,10.14
2017-11-16T22:00:45.430Z,10.14
2017-11-16T22:03:13.048Z,10.14
2017-11-16T22:05:40.668Z,10.21
2017-11-16T22:08:08.352Z,10.20
2017-11-16T22:10:35.972Z,10.22
2017-11-16T22:13:03.588Z,10.21
2017-11-16T22:15:31.305Z,10.28
2017-11-16T22:17:58.980Z,10.27
2017-11-16T22:20:26.600Z,10.25
2017-11-16T22:22:54.276Z,10.24
2017-11-16T22:25:21.960Z,10.24
2017-11-16T22:27:49.608Z,10.31
2017-11-16T22:30:17.337Z,10.36
2017-11-16T22:32:44.959Z,10.35
2017-11-16T22:35:12.572Z,10.29
2017-11-16T22:37:40.240Z,10.29
2017-11-16T22:40:07.861Z,10.32
2017-11-16T22:42:35.475Z,10.33
2017-11-16T22:45:03.237Z,10.36
2017-11-16T22:47:30.850Z,10.35
2017-11-16T22:49:58.479Z,10.26
2017-11-16T22:52:26.182Z,10.32
2017-11-16T22:54:53.782Z,10.28
2017-11-16T22:57:21.423Z,10.28
2017-11-16T22:59:49.158Z,10.23
2017-11-16T23:02:16.792Z,10.17
2017-11-16T23:04:44.403Z,10.19
2017-11-16T23:07:12.137Z,10.22
2017-11-16T23:09:39.746Z,10.28
2017-11-16T23:12:07.422Z,10.31
2017-11-16T23:14:35.128Z,10.35
2017-11-16T23:17:02.777Z,10.33
2017-11-16T23:19:30.395Z,10.26
2017-11-16T23:21:58.062Z,10.25
2017-11-16T23:24:25.764Z,10.25
2017-11-16T23:26:53.392Z,10.25
2017-11-16T23:29:21.125Z,10.29
2017-11-16T23:31:48.804Z,10.32
2017-11-16T23:34:16.420Z,10.36
2017-11-16T23:36:44.152Z,10.37
2017-11-16T23:39:11.847Z,10.39
2017-11-16T23:41:39.521Z,10.36
2017-11-16T23:44:07.182Z,10.35
2017-11-16T23:46:34.814Z,10.30
2017-11-16T23:49:02.428Z,10.30
2017-11-16T23:51:30.112Z,10.29
2017-11-16T23:53:57.737Z,10.24
2017-11-16T23:56:25.421Z,10.24
2017-11-16T23:58:53.113Z,10.17
